sensor_id;sensor_type;location;lat;lon;timestamp;P1;durP1;ratioP1;P2;durP2;ratioP2
71351;SDS011;59159;51.652;4.864;2023-05-17T00:01:13;6.43;;;1.02;;
71351;SDS011;59159;51.652;4.864;2023-05-17T00:03:39;4.47;;;0.80;;
71351;SDS011;59159;51.652;4.864;2023-05-17T00:06:05;4.68;;;0.77;;
71351;SDS011;59159;51.652;4.864;2023-05-17T00:08:31;3.20;;;0.95;;
71351;SDS011;59159;51.652;4.864;2023-05-17T00:10:57;3.70;;;0.77;;
71351;SDS011;59159;51.652;4.864;2023-05-17T00:13:23;4.53;;;0.95;;
71351;SDS011;59159;51.652;4.864;2023-05-17T00:15:49;3.28;;;1.17;;
71351;SDS011;59159;51.652;4.864;2023-05-17T00:18:15;4.40;;;1.30;;
71351;SDS011;59159;51.652;4.864;2023-05-17T00:20:41;4.05;;;0.90;;
71351;SDS011;59159;51.652;4.864;2023-05-17T00:23:07;3.88;;;1.10;;
71351;SDS011;59159;51.652;4.864;2023-05-17T00:25:33;5.30;;;1.30;;
71351;SDS011;59159;51.652;4.864;2023-05-17T00:27:59;4.10;;;0.80;;
71351;SDS011;59159;51.652;4.864;2023-05-17T00:30:25;3.53;;;0.93;;
71351;SDS011;59159;51.652;4.864;2023-05-17T00:32:51;4.85;;;0.88;;
71351;SDS011;59159;51.652;4.864;2023-05-17T00:35:17;4.27;;;0.80;;
71351;SDS011;59159;51.652;4.864;2023-05-17T00:37:43;6.13;;;1.05;;
71351;SDS011;59159;51.652;4.864;2023-05-17T00:40:12;5.70;;;0.93;;
71351;SDS011;59159;51.652;4.864;2023-05-17T00:42:38;5.03;;;1.00;;
71351;SDS011;59159;51.652;4.864;2023-05-17T00:45:04;4.72;;;0.80;;
71351;SDS011;59159;51.652;4.864;2023-05-17T00:47:30;3.88;;;0.90;;
71351;SDS011;59159;51.652;4.864;2023-05-17T00:49:56;5.53;;;1.00;;
71351;SDS011;59159;51.652;4.864;2023-05-17T00:52:22;4.40;;;0.70;;
71351;SDS011;59159;51.652;4.864;2023-05-17T00:54:48;4.93;;;0.80;;
71351;SDS011;59159;51.652;4.864;2023-05-17T00:57:15;4.03;;;0.80;;
71351;SDS011;59159;51.652;4.864;2023-05-17T00:59:41;4.57;;;1.00;;
71351;SDS011;59159;51.652;4.864;2023-05-17T01:02:08;5.47;;;1.13;;
71351;SDS011;59159;51.652;4.864;2023-05-17T01:04:35;4.05;;;1.00;;
71351;SDS011;59159;51.652;4.864;2023-05-17T01:07:01;4.90;;;0.73;;
71351;SDS011;59159;51.652;4.864;2023-05-17T01:09:28;3.78;;;0.60;;
71351;SDS011;59159;51.652;4.864;2023-05-17T01:16:55;4.53;;;1.10;;
71351;SDS011;59159;51.652;4.864;2023-05-17T01:24:32;4.07;;;1.00;;
71351;SDS011;59159;51.652;4.864;2023-05-17T01:27:04;4.15;;;0.90;;
71351;SDS011;59159;51.652;4.864;2023-05-17T01:29:31;4.47;;;0.90;;
71351;SDS011;59159;51.652;4.864;2023-05-17T01:31:57;5.83;;;1.10;;
71351;SDS011;59159;51.652;4.864;2023-05-17T01:34:27;6.78;;;1.00;;
71351;SDS011;59159;51.652;4.864;2023-05-17T01:36:53;5.25;;;1.10;;
71351;SDS011;59159;51.652;4.864;2023-05-17T01:39:21;5.45;;;0.85;;
71351;SDS011;59159;51.652;4.864;2023-05-17T01:41:54;4.43;;;1.00;;
71351;SDS011;59159;51.652;4.864;2023-05-17T01:44:24;4.97;;;0.80;;
71351;SDS011;59159;51.652;4.864;2023-05-17T01:46:52;4.45;;;0.80;;
71351;SDS011;59159;51.652;4.864;2023-05-17T01:49:21;5.10;;;1.00;;
71351;SDS011;59159;51.652;4.864;2023-05-17T01:52:06;4.32;;;1.00;;
71351;SDS011;59159;51.652;4.864;2023-05-17T01:54:35;4.38;;;1.02;;
71351;SDS011;59159;51.652;4.864;2023-05-17T01:57:03;3.67;;;0.80;;
71351;SDS011;59159;51.652;4.864;2023-05-17T01:59:31;5.25;;;1.20;;
71351;SDS011;59159;51.652;4.864;2023-05-17T02:01:59;7.10;;;1.10;;
71351;SDS011;59159;51.652;4.864;2023-05-17T02:04:33;5.47;;;1.30;;
71351;SDS011;59159;51.652;4.864;2023-05-17T02:06:59;5.63;;;0.80;;
71351;SDS011;59159;51.652;4.864;2023-05-17T02:09:25;4.15;;;0.95;;
71351;SDS011;59159;51.652;4.864;2023-05-17T02:11:51;4.03;;;1.00;;
71351;SDS011;59159;51.652;4.864;2023-05-17T02:14:17;4.70;;;0.87;;
71351;SDS011;59159;51.652;4.864;2023-05-17T02:16:43;6.22;;;0.95;;
71351;SDS011;59159;51.652;4.864;2023-05-17T02:19:09;3.85;;;0.90;;
71351;SDS011;59159;51.652;4.864;2023-05-17T02:21:37;4.30;;;0.87;;
71351;SDS011;59159;51.652;4.864;2023-05-17T02:24:03;4.63;;;1.08;;
71351;SDS011;59159;51.652;4.864;2023-05-17T02:26:29;6.00;;;0.90;;
71351;SDS011;59159;51.652;4.864;2023-05-17T02:28:55;4.50;;;0.90;;
71351;SDS011;59159;51.652;4.864;2023-05-17T02:31:21;4.07;;;0.83;;
71351;SDS011;59159;51.652;4.864;2023-05-17T02:33:50;4.68;;;0.90;;
71351;SDS011;59159;51.652;4.864;2023-05-17T02:36:16;3.95;;;1.00;;
71351;SDS011;59159;51.652;4.864;2023-05-17T02:38:42;5.00;;;0.90;;
71351;SDS011;59159;51.652;4.864;2023-05-17T02:41:08;4.47;;;0.90;;
71351;SDS011;59159;51.652;4.864;2023-05-17T02:43:34;5.25;;;1.17;;
71351;SDS011;59159;51.652;4.864;2023-05-17T02:46:00;4.03;;;0.90;;
71351;SDS011;59159;51.652;4.864;2023-05-17T02:48:29;5.13;;;1.50;;
71351;SDS011;59159;51.652;4.864;2023-05-17T02:50:55;5.47;;;1.20;;
71351;SDS011;59159;51.652;4.864;2023-05-17T02:53:21;7.55;;;0.90;;
71351;SDS011;59159;51.652;4.864;2023-05-17T02:55:47;4.47;;;0.90;;
71351;SDS011;59159;51.652;4.864;2023-05-17T02:58:13;7.20;;;1.08;;
71351;SDS011;59159;51.652;4.864;2023-05-17T03:00:43;4.47;;;0.98;;
71351;SDS011;59159;51.652;4.864;2023-05-17T03:03:09;4.30;;;0.90;;
71351;SDS011;59159;51.652;4.864;2023-05-17T03:05:35;4.47;;;1.05;;
71351;SDS011;59159;51.652;4.864;2023-05-17T03:08:01;4.72;;;1.20;;
71351;SDS011;59159;51.652;4.864;2023-05-17T03:10:27;4.43;;;1.10;;
71351;SDS011;59159;51.652;4.864;2023-05-17T03:12:53;5.75;;;1.48;;
71351;SDS011;59159;51.652;4.864;2023-05-17T03:15:19;5.40;;;1.10;;
71351;SDS011;59159;51.652;4.864;2023-05-17T03:17:45;4.97;;;1.27;;
71351;SDS011;59159;51.652;4.864;2023-05-17T03:20:11;6.70;;;1.30;;
71351;SDS011;59159;51.652;4.864;2023-05-17T03:22:37;6.28;;;0.90;;
71351;SDS011;59159;51.652;4.864;2023-05-17T03:25:03;4.28;;;1.20;;
71351;SDS011;59159;51.652;4.864;2023-05-17T03:27:29;5.60;;;1.10;;
71351;SDS011;59159;51.652;4.864;2023-05-17T03:29:55;5.05;;;1.23;;
71351;SDS011;59159;51.652;4.864;2023-05-17T03:32:21;3.97;;;0.77;;
71351;SDS011;59159;51.652;4.864;2023-05-17T03:34:47;6.63;;;1.13;;
71351;SDS011;59159;51.652;4.864;2023-05-17T03:37:13;6.45;;;1.20;;
71351;SDS011;59159;51.652;4.864;2023-05-17T03:39:40;4.72;;;1.20;;
71351;SDS011;59159;51.652;4.864;2023-05-17T03:42:06;4.13;;;0.98;;
71351;SDS011;59159;51.652;4.864;2023-05-17T03:44:31;4.53;;;1.10;;
71351;SDS011;59159;51.652;4.864;2023-05-17T03:46:59;5.10;;;1.10;;
71351;SDS011;59159;51.652;4.864;2023-05-17T03:49:25;5.03;;;1.10;;
71351;SDS011;59159;51.652;4.864;2023-05-17T03:51:51;5.57;;;1.13;;
71351;SDS011;59159;51.652;4.864;2023-05-17T03:54:17;5.05;;;1.05;;
71351;SDS011;59159;51.652;4.864;2023-05-17T03:56:42;5.43;;;1.20;;
71351;SDS011;59159;51.652;4.864;2023-05-17T03:59:11;6.23;;;1.10;;
71351;SDS011;59159;51.652;4.864;2023-05-17T04:01:38;6.78;;;1.45;;
71351;SDS011;59159;51.652;4.864;2023-05-17T04:04:04;3.80;;;1.08;;
71351;SDS011;59159;51.652;4.864;2023-05-17T04:06:30;7.32;;;1.50;;
71351;SDS011;59159;51.652;4.864;2023-05-17T04:08:57;6.13;;;1.30;;
71351;SDS011;59159;51.652;4.864;2023-05-17T04:11:26;5.55;;;1.55;;
71351;SDS011;59159;51.652;4.864;2023-05-17T04:13:52;4.75;;;1.17;;
71351;SDS011;59159;51.652;4.864;2023-05-17T04:16:19;7.30;;;1.27;;
71351;SDS011;59159;51.652;4.864;2023-05-17T04:18:45;3.83;;;1.17;;
71351;SDS011;59159;51.652;4.864;2023-05-17T04:21:11;5.57;;;1.50;;
71351;SDS011;59159;51.652;4.864;2023-05-17T04:23:37;9.63;;;2.50;;
71351;SDS011;59159;51.652;4.864;2023-05-17T04:26:03;11.43;;;2.70;;
71351;SDS011;59159;51.652;4.864;2023-05-17T04:28:30;14.75;;;3.00;;
71351;SDS011;59159;51.652;4.864;2023-05-17T04:30:59;13.80;;;4.32;;
71351;SDS011;59159;51.652;4.864;2023-05-17T04:33:25;12.30;;;3.03;;
71351;SDS011;59159;51.652;4.864;2023-05-17T04:35:54;12.20;;;3.25;;
71351;SDS011;59159;51.652;4.864;2023-05-17T04:38:20;10.27;;;3.22;;
71351;SDS011;59159;51.652;4.864;2023-05-17T04:40:47;11.83;;;3.33;;
71351;SDS011;59159;51.652;4.864;2023-05-17T04:43:13;10.70;;;3.97;;
71351;SDS011;59159;51.652;4.864;2023-05-17T04:45:40;14.85;;;3.30;;
71351;SDS011;59159;51.652;4.864;2023-05-17T04:48:06;11.30;;;3.37;;
71351;SDS011;59159;51.652;4.864;2023-05-17T04:50:32;10.77;;;3.92;;
71351;SDS011;59159;51.652;4.864;2023-05-17T04:52:58;12.82;;;3.60;;
71351;SDS011;59159;51.652;4.864;2023-05-17T04:55:24;12.95;;;3.35;;
71351;SDS011;59159;51.652;4.864;2023-05-17T04:57:50;10.47;;;3.70;;
71351;SDS011;59159;51.652;4.864;2023-05-17T05:00:17;10.52;;;3.35;;
71351;SDS011;59159;51.652;4.864;2023-05-17T05:02:44;11.55;;;3.30;;
71351;SDS011;59159;51.652;4.864;2023-05-17T05:05:10;11.73;;;3.57;;
71351;SDS011;59159;51.652;4.864;2023-05-17T05:07:36;12.65;;;3.85;;
71351;SDS011;59159;51.652;4.864;2023-05-17T05:10:04;15.65;;;3.65;;
71351;SDS011;59159;51.652;4.864;2023-05-17T05:12:30;22.17;;;3.30;;
71351;SDS011;59159;51.652;4.864;2023-05-17T05:14:56;20.25;;;3.67;;
71351;SDS011;59159;51.652;4.864;2023-05-17T05:17:22;13.05;;;3.38;;
71351;SDS011;59159;51.652;4.864;2023-05-17T05:19:48;13.02;;;3.65;;
71351;SDS011;59159;51.652;4.864;2023-05-17T05:22:14;14.93;;;3.87;;
71351;SDS011;59159;51.652;4.864;2023-05-17T05:24:40;13.25;;;3.30;;
71351;SDS011;59159;51.652;4.864;2023-05-17T05:27:06;12.90;;;2.50;;
71351;SDS011;59159;51.652;4.864;2023-05-17T05:29:32;8.90;;;2.27;;
71351;SDS011;59159;51.652;4.864;2023-05-17T05:31:58;9.02;;;2.03;;
71351;SDS011;59159;51.652;4.864;2023-05-17T05:34:24;11.85;;;2.58;;
71351;SDS011;59159;51.652;4.864;2023-05-17T05:36:52;9.77;;;2.27;;
71351;SDS011;59159;51.652;4.864;2023-05-17T05:39:18;9.00;;;3.20;;
71351;SDS011;59159;51.652;4.864;2023-05-17T05:41:44;13.60;;;3.53;;
71351;SDS011;59159;51.652;4.864;2023-05-17T05:44:11;8.30;;;2.40;;
71351;SDS011;59159;51.652;4.864;2023-05-17T05:46:37;8.97;;;2.43;;
71351;SDS011;59159;51.652;4.864;2023-05-17T05:49:03;9.23;;;2.20;;
71351;SDS011;59159;51.652;4.864;2023-05-17T05:51:29;7.35;;;2.10;;
71351;SDS011;59159;51.652;4.864;2023-05-17T05:53:55;8.77;;;2.80;;
71351;SDS011;59159;51.652;4.864;2023-05-17T05:56:22;8.52;;;2.20;;
71351;SDS011;59159;51.652;4.864;2023-05-17T05:58:49;9.45;;;2.45;;
71351;SDS011;59159;51.652;4.864;2023-05-17T06:01:15;9.27;;;2.43;;
71351;SDS011;59159;51.652;4.864;2023-05-17T06:03:41;8.80;;;2.13;;
71351;SDS011;59159;51.652;4.864;2023-05-17T06:06:07;8.38;;;1.80;;
71351;SDS011;59159;51.652;4.864;2023-05-17T06:08:34;8.95;;;1.92;;
71351;SDS011;59159;51.652;4.864;2023-05-17T06:11:00;7.53;;;2.10;;
71351;SDS011;59159;51.652;4.864;2023-05-17T06:13:26;8.85;;;2.00;;
71351;SDS011;59159;51.652;4.864;2023-05-17T06:15:52;9.93;;;2.40;;
71351;SDS011;59159;51.652;4.864;2023-05-17T06:18:18;7.70;;;2.20;;
71351;SDS011;59159;51.652;4.864;2023-05-17T06:20:44;7.63;;;1.85;;
71351;SDS011;59159;51.652;4.864;2023-05-17T06:23:10;7.75;;;2.10;;
71351;SDS011;59159;51.652;4.864;2023-05-17T06:25:36;9.07;;;2.30;;
71351;SDS011;59159;51.652;4.864;2023-05-17T06:28:02;7.97;;;1.92;;
71351;SDS011;59159;51.652;4.864;2023-05-17T06:30:28;7.65;;;1.98;;
71351;SDS011;59159;51.652;4.864;2023-05-17T06:32:54;5.70;;;1.65;;
71351;SDS011;59159;51.652;4.864;2023-05-17T06:35:20;7.33;;;2.10;;
71351;SDS011;59159;51.652;4.864;2023-05-17T06:37:46;9.45;;;2.25;;
71351;SDS011;59159;51.652;4.864;2023-05-17T06:40:12;9.05;;;2.25;;
71351;SDS011;59159;51.652;4.864;2023-05-17T06:42:38;9.10;;;2.00;;
71351;SDS011;59159;51.652;4.864;2023-05-17T06:45:05;8.15;;;1.98;;
71351;SDS011;59159;51.652;4.864;2023-05-17T06:47:31;9.15;;;2.10;;
71351;SDS011;59159;51.652;4.864;2023-05-17T06:49:57;6.37;;;1.60;;
71351;SDS011;59159;51.652;4.864;2023-05-17T06:52:23;9.32;;;1.75;;
71351;SDS011;59159;51.652;4.864;2023-05-17T06:54:49;6.43;;;2.00;;
71351;SDS011;59159;51.652;4.864;2023-05-17T06:57:16;6.40;;;1.60;;
71351;SDS011;59159;51.652;4.864;2023-05-17T06:59:41;6.47;;;1.53;;
71351;SDS011;59159;51.652;4.864;2023-05-17T07:02:07;6.68;;;1.38;;
71351;SDS011;59159;51.652;4.864;2023-05-17T07:04:33;7.68;;;1.90;;
71351;SDS011;59159;51.652;4.864;2023-05-17T07:07:00;6.77;;;1.50;;
71351;SDS011;59159;51.652;4.864;2023-05-17T07:09:26;7.18;;;1.60;;
71351;SDS011;59159;51.652;4.864;2023-05-17T07:11:52;6.65;;;1.80;;
71351;SDS011;59159;51.652;4.864;2023-05-17T07:14:18;7.50;;;1.30;;
71351;SDS011;59159;51.652;4.864;2023-05-17T07:16:44;6.75;;;1.35;;
71351;SDS011;59159;51.652;4.864;2023-05-17T07:19:11;10.27;;;1.80;;
71351;SDS011;59159;51.652;4.864;2023-05-17T07:21:37;5.88;;;1.58;;
71351;SDS011;59159;51.652;4.864;2023-05-17T07:24:03;5.77;;;1.40;;
71351;SDS011;59159;51.652;4.864;2023-05-17T07:26:29;6.15;;;1.42;;
71351;SDS011;59159;51.652;4.864;2023-05-17T07:28:56;6.07;;;1.48;;
71351;SDS011;59159;51.652;4.864;2023-05-17T07:31:22;6.37;;;2.27;;
71351;SDS011;59159;51.652;4.864;2023-05-17T07:33:48;7.10;;;1.33;;
71351;SDS011;59159;51.652;4.864;2023-05-17T07:36:14;6.50;;;1.50;;
71351;SDS011;59159;51.652;4.864;2023-05-17T07:38:40;5.17;;;1.07;;
71351;SDS011;59159;51.652;4.864;2023-05-17T07:41:06;8.23;;;1.95;;
71351;SDS011;59159;51.652;4.864;2023-05-17T07:43:37;8.35;;;1.50;;
71351;SDS011;59159;51.652;4.864;2023-05-17T07:46:04;7.70;;;1.35;;
71351;SDS011;59159;51.652;4.864;2023-05-17T07:48:30;6.13;;;1.63;;
71351;SDS011;59159;51.652;4.864;2023-05-17T07:50:56;5.55;;;1.27;;
71351;SDS011;59159;51.652;4.864;2023-05-17T07:53:22;5.70;;;1.23;;
71351;SDS011;59159;51.652;4.864;2023-05-17T07:55:48;8.20;;;1.87;;
71351;SDS011;59159;51.652;4.864;2023-05-17T07:58:14;7.53;;;1.52;;
71351;SDS011;59159;51.652;4.864;2023-05-17T08:00:40;5.32;;;1.30;;
71351;SDS011;59159;51.652;4.864;2023-05-17T08:03:06;7.17;;;1.53;;
71351;SDS011;59159;51.652;4.864;2023-05-17T08:05:32;6.15;;;1.10;;
71351;SDS011;59159;51.652;4.864;2023-05-17T08:07:58;6.15;;;1.55;;
71351;SDS011;59159;51.652;4.864;2023-05-17T08:10:27;6.00;;;1.35;;
71351;SDS011;59159;51.652;4.864;2023-05-17T08:12:53;6.20;;;1.40;;
71351;SDS011;59159;51.652;4.864;2023-05-17T08:15:20;7.70;;;1.88;;
71351;SDS011;59159;51.652;4.864;2023-05-17T08:17:46;7.20;;;1.58;;
71351;SDS011;59159;51.652;4.864;2023-05-17T08:20:12;6.77;;;1.40;;
71351;SDS011;59159;51.652;4.864;2023-05-17T08:22:38;6.45;;;1.08;;
71351;SDS011;59159;51.652;4.864;2023-05-17T08:25:04;7.35;;;1.20;;
71351;SDS011;59159;51.652;4.864;2023-05-17T08:27:30;6.07;;;1.20;;
71351;SDS011;59159;51.652;4.864;2023-05-17T08:29:56;4.90;;;1.10;;
71351;SDS011;59159;51.652;4.864;2023-05-17T08:32:23;5.13;;;1.27;;
71351;SDS011;59159;51.652;4.864;2023-05-17T08:34:50;6.10;;;1.17;;
71351;SDS011;59159;51.652;4.864;2023-05-17T08:37:16;4.60;;;1.00;;
71351;SDS011;59159;51.652;4.864;2023-05-17T08:39:42;5.40;;;0.93;;
71351;SDS011;59159;51.652;4.864;2023-05-17T08:42:08;6.57;;;1.20;;
71351;SDS011;59159;51.652;4.864;2023-05-17T08:44:35;4.80;;;1.20;;
71351;SDS011;59159;51.652;4.864;2023-05-17T08:47:02;5.20;;;1.17;;
71351;SDS011;59159;51.652;4.864;2023-05-17T08:49:29;5.82;;;1.20;;
71351;SDS011;59159;51.652;4.864;2023-05-17T08:51:59;5.77;;;1.27;;
71351;SDS011;59159;51.652;4.864;2023-05-17T08:54:26;6.82;;;1.55;;
71351;SDS011;59159;51.652;4.864;2023-05-17T08:56:53;6.43;;;0.90;;
71351;SDS011;59159;51.652;4.864;2023-05-17T08:59:20;6.32;;;1.67;;
71351;SDS011;59159;51.652;4.864;2023-05-17T09:01:47;5.23;;;1.07;;
71351;SDS011;59159;51.652;4.864;2023-05-17T09:04:14;4.55;;;1.10;;
71351;SDS011;59159;51.652;4.864;2023-05-17T09:06:41;3.50;;;0.98;;
71351;SDS011;59159;51.652;4.864;2023-05-17T09:09:10;4.53;;;1.00;;
71351;SDS011;59159;51.652;4.864;2023-05-17T09:11:36;4.57;;;1.00;;
71351;SDS011;59159;51.652;4.864;2023-05-17T09:14:03;5.35;;;1.15;;
71351;SDS011;59159;51.652;4.864;2023-05-17T09:16:29;5.13;;;1.20;;
71351;SDS011;59159;51.652;4.864;2023-05-17T09:18:57;5.32;;;1.23;;
71351;SDS011;59159;51.652;4.864;2023-05-17T09:21:23;7.22;;;1.20;;
71351;SDS011;59159;51.652;4.864;2023-05-17T09:23:50;5.30;;;1.00;;
71351;SDS011;59159;51.652;4.864;2023-05-17T09:26:16;5.03;;;1.13;;
71351;SDS011;59159;51.652;4.864;2023-05-17T09:28:42;5.40;;;1.02;;
71351;SDS011;59159;51.652;4.864;2023-05-17T09:31:09;4.60;;;0.82;;
71351;SDS011;59159;51.652;4.864;2023-05-17T09:33:42;4.87;;;1.20;;
71351;SDS011;59159;51.652;4.864;2023-05-17T09:36:18;3.97;;;1.08;;
71351;SDS011;59159;51.652;4.864;2023-05-17T09:38:54;3.97;;;1.10;;
71351;SDS011;59159;51.652;4.864;2023-05-17T09:41:20;3.90;;;1.13;;
71351;SDS011;59159;51.652;4.864;2023-05-17T09:43:47;4.78;;;0.90;;
71351;SDS011;59159;51.652;4.864;2023-05-17T09:46:13;3.90;;;0.80;;
71351;SDS011;59159;51.652;4.864;2023-05-17T09:48:40;3.35;;;0.90;;
71351;SDS011;59159;51.652;4.864;2023-05-17T09:51:08;5.77;;;1.10;;
71351;SDS011;59159;51.652;4.864;2023-05-17T09:53:34;4.50;;;0.93;;
71351;SDS011;59159;51.652;4.864;2023-05-17T09:56:05;7.45;;;1.50;;
71351;SDS011;59159;51.652;4.864;2023-05-17T09:58:31;4.43;;;0.90;;
71351;SDS011;59159;51.652;4.864;2023-05-17T10:00:59;5.60;;;1.10;;
71351;SDS011;59159;51.652;4.864;2023-05-17T10:03:25;6.05;;;1.15;;
71351;SDS011;59159;51.652;4.864;2023-05-17T10:05:54;6.00;;;1.37;;
71351;SDS011;59159;51.652;4.864;2023-05-17T10:08:21;6.13;;;0.95;;
71351;SDS011;59159;51.652;4.864;2023-05-17T10:10:49;5.22;;;1.13;;
71351;SDS011;59159;51.652;4.864;2023-05-17T10:13:17;5.45;;;0.93;;
71351;SDS011;59159;51.652;4.864;2023-05-17T10:15:46;4.10;;;0.87;;
71351;SDS011;59159;51.652;4.864;2023-05-17T10:18:12;5.15;;;0.82;;
71351;SDS011;59159;51.652;4.864;2023-05-17T10:20:39;5.82;;;1.00;;
71351;SDS011;59159;51.652;4.864;2023-05-17T10:23:05;4.60;;;1.10;;
71351;SDS011;59159;51.652;4.864;2023-05-17T10:25:31;5.20;;;1.00;;
71351;SDS011;59159;51.652;4.864;2023-05-17T10:27:57;6.05;;;1.10;;
71351;SDS011;59159;51.652;4.864;2023-05-17T10:30:25;4.97;;;0.80;;
71351;SDS011;59159;51.652;4.864;2023-05-17T10:32:51;4.22;;;0.80;;
71351;SDS011;59159;51.652;4.864;2023-05-17T10:35:17;4.57;;;0.90;;
71351;SDS011;59159;51.652;4.864;2023-05-17T10:37:44;4.82;;;1.10;;
71351;SDS011;59159;51.652;4.864;2023-05-17T10:40:10;5.07;;;0.93;;
71351;SDS011;59159;51.652;4.864;2023-05-17T10:42:48;4.72;;;0.80;;
71351;SDS011;59159;51.652;4.864;2023-05-17T10:45:15;4.97;;;1.10;;
71351;SDS011;59159;51.652;4.864;2023-05-17T10:47:44;4.10;;;0.70;;
71351;SDS011;59159;51.652;4.864;2023-05-17T10:50:11;6.35;;;1.17;;
71351;SDS011;59159;51.652;4.864;2023-05-17T10:52:39;6.40;;;1.20;;
71351;SDS011;59159;51.652;4.864;2023-05-17T10:55:10;3.80;;;0.90;;
71351;SDS011;59159;51.652;4.864;2023-05-17T10:57:36;6.97;;;1.30;;
71351;SDS011;59159;51.652;4.864;2023-05-17T11:00:03;6.80;;;1.25;;
71351;SDS011;59159;51.652;4.864;2023-05-17T11:02:38;6.35;;;1.15;;
71351;SDS011;59159;51.652;4.864;2023-05-17T11:05:05;5.27;;;1.13;;
71351;SDS011;59159;51.652;4.864;2023-05-17T11:07:31;6.65;;;1.35;;
71351;SDS011;59159;51.652;4.864;2023-05-17T11:14:56;5.38;;;1.17;;
71351;SDS011;59159;51.652;4.864;2023-05-17T11:17:24;8.68;;;1.08;;
71351;SDS011;59159;51.652;4.864;2023-05-17T11:22:27;9.68;;;1.63;;
71351;SDS011;59159;51.652;4.864;2023-05-17T11:24:55;6.75;;;1.33;;
71351;SDS011;59159;51.652;4.864;2023-05-17T11:27:21;8.88;;;1.90;;
71351;SDS011;59159;51.652;4.864;2023-05-17T11:29:54;6.20;;;1.03;;
71351;SDS011;59159;51.652;4.864;2023-05-17T11:32:27;5.90;;;1.10;;
71351;SDS011;59159;51.652;4.864;2023-05-17T11:34:53;5.93;;;1.23;;
71351;SDS011;59159;51.652;4.864;2023-05-17T11:37:26;9.17;;;1.60;;
71351;SDS011;59159;51.652;4.864;2023-05-17T11:40:02;7.20;;;1.40;;
71351;SDS011;59159;51.652;4.864;2023-05-17T11:42:29;7.25;;;1.20;;
71351;SDS011;59159;51.652;4.864;2023-05-17T11:44:56;4.03;;;1.03;;
71351;SDS011;59159;51.652;4.864;2023-05-17T11:47:22;8.02;;;1.45;;
71351;SDS011;59159;51.652;4.864;2023-05-17T11:49:49;8.23;;;1.50;;
71351;SDS011;59159;51.652;4.864;2023-05-17T11:52:16;5.03;;;1.00;;
71351;SDS011;59159;51.652;4.864;2023-05-17T11:54:42;9.17;;;1.53;;
71351;SDS011;59159;51.652;4.864;2023-05-17T11:57:10;7.00;;;1.20;;
71351;SDS011;59159;51.652;4.864;2023-05-17T11:59:38;4.40;;;1.00;;
71351;SDS011;59159;51.652;4.864;2023-05-17T12:02:04;7.97;;;1.27;;
71351;SDS011;59159;51.652;4.864;2023-05-17T12:04:33;6.80;;;1.10;;
71351;SDS011;59159;51.652;4.864;2023-05-17T12:07:00;6.32;;;1.30;;
71351;SDS011;59159;51.652;4.864;2023-05-17T12:09:26;6.47;;;1.40;;
71351;SDS011;59159;51.652;4.864;2023-05-17T12:11:53;6.70;;;1.48;;
71351;SDS011;59159;51.652;4.864;2023-05-17T12:14:20;6.75;;;1.55;;
71351;SDS011;59159;51.652;4.864;2023-05-17T12:16:47;6.97;;;1.58;;
71351;SDS011;59159;51.652;4.864;2023-05-17T12:19:18;6.43;;;1.30;;
71351;SDS011;59159;51.652;4.864;2023-05-17T12:21:45;6.07;;;1.52;;
71351;SDS011;59159;51.652;4.864;2023-05-17T12:24:11;5.88;;;1.25;;
71351;SDS011;59159;51.652;4.864;2023-05-17T12:26:46;9.90;;;1.40;;
71351;SDS011;59159;51.652;4.864;2023-05-17T12:29:13;10.95;;;1.85;;
71351;SDS011;59159;51.652;4.864;2023-05-17T12:31:42;3.92;;;0.90;;
71351;SDS011;59159;51.652;4.864;2023-05-17T12:34:08;5.57;;;1.17;;
71351;SDS011;59159;51.652;4.864;2023-05-17T12:36:39;5.60;;;1.10;;
71351;SDS011;59159;51.652;4.864;2023-05-17T12:39:06;8.90;;;1.95;;
71351;SDS011;59159;51.652;4.864;2023-05-17T12:41:34;4.82;;;1.13;;
71351;SDS011;59159;51.652;4.864;2023-05-17T12:44:01;8.07;;;1.73;;
71351;SDS011;59159;51.652;4.864;2023-05-17T12:46:28;7.55;;;1.77;;
71351;SDS011;59159;51.652;4.864;2023-05-17T12:48:54;6.25;;;1.20;;
71351;SDS011;59159;51.652;4.864;2023-05-17T12:51:20;6.43;;;1.57;;
71351;SDS011;59159;51.652;4.864;2023-05-17T12:56:17;5.38;;;1.05;;
71351;SDS011;59159;51.652;4.864;2023-05-17T12:58:46;4.87;;;1.23;;
71351;SDS011;59159;51.652;4.864;2023-05-17T13:01:31;6.63;;;1.77;;
71351;SDS011;59159;51.652;4.864;2023-05-17T13:03:57;5.60;;;1.42;;
71351;SDS011;59159;51.652;4.864;2023-05-17T13:06:23;7.50;;;1.40;;
71351;SDS011;59159;51.652;4.864;2023-05-17T13:08:59;9.90;;;1.47;;
71351;SDS011;59159;51.652;4.864;2023-05-17T13:11:25;7.35;;;1.50;;
71351;SDS011;59159;51.652;4.864;2023-05-17T13:13:51;7.32;;;1.60;;
71351;SDS011;59159;51.652;4.864;2023-05-17T13:16:27;6.77;;;1.40;;
71351;SDS011;59159;51.652;4.864;2023-05-17T13:18:53;6.60;;;1.23;;
71351;SDS011;59159;51.652;4.864;2023-05-17T13:21:23;6.22;;;1.48;;
71351;SDS011;59159;51.652;4.864;2023-05-17T13:23:49;7.60;;;2.03;;
71351;SDS011;59159;51.652;4.864;2023-05-17T13:26:16;9.55;;;1.75;;
71351;SDS011;59159;51.652;4.864;2023-05-17T13:28:42;7.32;;;1.48;;
71351;SDS011;59159;51.652;4.864;2023-05-17T13:31:08;7.53;;;1.50;;
71351;SDS011;59159;51.652;4.864;2023-05-17T13:33:34;7.27;;;1.40;;
71351;SDS011;59159;51.652;4.864;2023-05-17T13:36:00;8.18;;;1.42;;
71351;SDS011;59159;51.652;4.864;2023-05-17T13:38:26;5.65;;;1.65;;
71351;SDS011;59159;51.652;4.864;2023-05-17T13:40:52;10.00;;;1.47;;
71351;SDS011;59159;51.652;4.864;2023-05-17T13:43:18;6.72;;;1.70;;
71351;SDS011;59159;51.652;4.864;2023-05-17T13:45:45;9.93;;;1.90;;
71351;SDS011;59159;51.652;4.864;2023-05-17T13:48:14;10.30;;;1.50;;
71351;SDS011;59159;51.652;4.864;2023-05-17T13:50:40;9.45;;;2.10;;
71351;SDS011;59159;51.652;4.864;2023-05-17T13:53:06;7.15;;;1.20;;
71351;SDS011;59159;51.652;4.864;2023-05-17T13:55:32;7.00;;;1.80;;
71351;SDS011;59159;51.652;4.864;2023-05-17T13:57:58;7.40;;;1.40;;
71351;SDS011;59159;51.652;4.864;2023-05-17T14:00:24;6.13;;;1.80;;
71351;SDS011;59159;51.652;4.864;2023-05-17T14:02:50;5.43;;;1.35;;
71351;SDS011;59159;51.652;4.864;2023-05-17T14:05:16;7.47;;;1.50;;
71351;SDS011;59159;51.652;4.864;2023-05-17T14:07:42;8.77;;;1.98;;
71351;SDS011;59159;51.652;4.864;2023-05-17T14:10:10;7.82;;;1.35;;
71351;SDS011;59159;51.652;4.864;2023-05-17T14:12:39;6.20;;;1.50;;
71351;SDS011;59159;51.652;4.864;2023-05-17T14:15:06;9.48;;;1.48;;
71351;SDS011;59159;51.652;4.864;2023-05-17T14:17:32;8.38;;;1.42;;
71351;SDS011;59159;51.652;4.864;2023-05-17T14:19:58;8.38;;;1.35;;
71351;SDS011;59159;51.652;4.864;2023-05-17T14:22:25;6.00;;;1.40;;
71351;SDS011;59159;51.652;4.864;2023-05-17T14:24:51;5.82;;;1.10;;
71351;SDS011;59159;51.652;4.864;2023-05-17T14:27:17;5.20;;;0.93;;
71351;SDS011;59159;51.652;4.864;2023-05-17T14:29:43;8.10;;;1.73;;
71351;SDS011;59159;51.652;4.864;2023-05-17T14:32:09;4.97;;;1.15;;
71351;SDS011;59159;51.652;4.864;2023-05-17T14:34:37;8.10;;;1.40;;
71351;SDS011;59159;51.652;4.864;2023-05-17T14:37:03;8.73;;;1.00;;
71351;SDS011;59159;51.652;4.864;2023-05-17T14:39:29;8.75;;;1.60;;
71351;SDS011;59159;51.652;4.864;2023-05-17T14:41:55;7.38;;;1.70;;
71351;SDS011;59159;51.652;4.864;2023-05-17T14:44:21;4.63;;;1.15;;
71351;SDS011;59159;51.652;4.864;2023-05-17T14:46:47;7.90;;;1.30;;
71351;SDS011;59159;51.652;4.864;2023-05-17T14:49:13;7.60;;;1.35;;
71351;SDS011;59159;51.652;4.864;2023-05-17T14:51:38;7.75;;;1.55;;
71351;SDS011;59159;51.652;4.864;2023-05-17T14:54:04;5.17;;;1.30;;
71351;SDS011;59159;51.652;4.864;2023-05-17T14:56:30;6.25;;;0.90;;
71351;SDS011;59159;51.652;4.864;2023-05-17T14:58:56;7.00;;;1.20;;
71351;SDS011;59159;51.652;4.864;2023-05-17T15:01:23;4.63;;;1.30;;
71351;SDS011;59159;51.652;4.864;2023-05-17T15:03:49;7.72;;;1.17;;